Flugplatz Sprossen

Für EDCH sind keine METAR/TAF Berichte vorhanden.
Es werden die Flugwettermeldungen vom Flugplatz Altenburg-Nobitz in 20 km Entfernung angezeigt.

Bericht für EDAC

vom 28.09. um 22:20 UTC

kein Wind

Sichtweite 10 km oder mehr

feuchter Dunst

aufgelockert bewölkt in 4200 ft

Temperatur 10.0°C

Taupunkt 9.0°C

Luftfeuchtigkeit 93%

Luftdruck 1021 hPa

EDAC 282220Z 00000KT 9999 R04///// BR SCT042 10/09 Q1021

Prognose für EDAC

vom 28.09. um 17:00 UTC

Am 28.09. zwischen 18:00 UTC und 21:00 UTC

variable Windrichtung mit 2 kt

Sichtweite 10 km oder mehr

gering bewölkt in 2000 ft


Am 28.09. zwischen 21:00 und 23:00 UTC übergehend zu

variable Windrichtung mit 2 kt

Sichtweite 4000 m

feuchter Dunst

gering bewölkt in 2000 ft

TAF EDAC 281700Z 2818/2903 VRB02KT 9999 FEW020 BECMG 2821/2823 4000 BR
Impressum